sensor_id;sensor_type;location;lat;lon;timestamp;temperature;humidity
12632;DHT22;6381;45.748;12.106;2023-05-18T00:01:56;15.20;99.90
12632;DHT22;6381;45.748;12.106;2023-05-18T00:04:26;15.10;99.90
12632;DHT22;6381;45.748;12.106;2023-05-18T00:06:56;15.10;99.90
12632;DHT22;6381;45.748;12.106;2023-05-18T00:09:33;14.90;99.90
12632;DHT22;6381;45.748;12.106;2023-05-18T00:12:05;14.80;99.90
12632;DHT22;6381;45.748;12.106;2023-05-18T00:14:36;15.00;99.90
12632;DHT22;6381;45.748;12.106;2023-05-18T00:17:06;14.90;99.90
12632;DHT22;6381;45.748;12.106;2023-05-18T00:19:36;14.90;99.90
12632;DHT22;6381;45.748;12.106;2023-05-18T00:22:07;15.00;99.90
12632;DHT22;6381;45.748;12.106;2023-05-18T00:24:37;15.10;99.90
12632;DHT22;6381;45.748;12.106;2023-05-18T00:27:08;15.20;99.90
12632;DHT22;6381;45.748;12.106;2023-05-18T00:29:38;15.10;99.90
12632;DHT22;6381;45.748;12.106;2023-05-18T00:32:07;15.00;99.90
12632;DHT22;6381;45.748;12.106;2023-05-18T00:34:37;15.10;99.90
12632;DHT22;6381;45.748;12.106;2023-05-18T00:37:07;15.20;99.90
12632;DHT22;6381;45.748;12.106;2023-05-18T00:39:36;15.30;99.90
12632;DHT22;6381;45.748;12.106;2023-05-18T00:42:08;15.20;99.90
12632;DHT22;6381;45.748;12.106;2023-05-18T00:44:37;15.20;99.90
12632;DHT22;6381;45.748;12.106;2023-05-18T00:47:07;15.00;99.90
12632;DHT22;6381;45.748;12.106;2023-05-18T00:49:38;15.00;99.90
12632;DHT22;6381;45.748;12.106;2023-05-18T00:52:08;15.10;99.90
12632;DHT22;6381;45.748;12.106;2023-05-18T00:54:37;15.00;99.70
12632;DHT22;6381;45.748;12.106;2023-05-18T00:57:09;14.70;99.40
12632;DHT22;6381;45.748;12.106;2023-05-18T00:59:38;14.80;99.90
12632;DHT22;6381;45.748;12.106;2023-05-18T01:02:08;14.70;99.90
12632;DHT22;6381;45.748;12.106;2023-05-18T01:04:39;14.50;99.90
12632;DHT22;6381;45.748;12.106;2023-05-18T01:07:10;14.40;99.90
12632;DHT22;6381;45.748;12.106;2023-05-18T01:09:43;14.40;99.90
12632;DHT22;6381;45.748;12.106;2023-05-18T01:12:20;14.20;99.90
12632;DHT22;6381;45.748;12.106;2023-05-18T01:14:58;14.40;99.90
12632;DHT22;6381;45.748;12.106;2023-05-18T01:17:36;14.30;99.90
12632;DHT22;6381;45.748;12.106;2023-05-18T01:20:16;14.10;99.90
12632;DHT22;6381;45.748;12.106;2023-05-18T01:23:11;14.30;99.90
12632;DHT22;6381;45.748;12.106;2023-05-18T01:25:50;14.20;99.80
12632;DHT22;6381;45.748;12.106;2023-05-18T01:28:26;14.30;99.90
12632;DHT22;6381;45.748;12.106;2023-05-18T01:30:58;14.20;99.70
12632;DHT22;6381;45.748;12.106;2023-05-18T01:33:31;14.20;99.40
12632;DHT22;6381;45.748;12.106;2023-05-18T01:36:01;14.10;99.30
12632;DHT22;6381;45.748;12.106;2023-05-18T01:38:32;14.10;99.60
12632;DHT22;6381;45.748;12.106;2023-05-18T01:41:11;14.10;99.40
12632;DHT22;6381;45.748;12.106;2023-05-18T01:43:49;14.10;99.10
12632;DHT22;6381;45.748;12.106;2023-05-18T01:46:39;13.90;99.00
12632;DHT22;6381;45.748;12.106;2023-05-18T01:49:15;13.80;99.30
12632;DHT22;6381;45.748;12.106;2023-05-18T01:51:46;13.70;99.40
12632;DHT22;6381;45.748;12.106;2023-05-18T01:54:19;13.40;99.30
12632;DHT22;6381;45.748;12.106;2023-05-18T01:56:51;13.50;99.50
12632;DHT22;6381;45.748;12.106;2023-05-18T01:59:25;13.60;99.20
12632;DHT22;6381;45.748;12.106;2023-05-18T02:01:58;13.60;98.80
12632;DHT22;6381;45.748;12.106;2023-05-18T02:04:28;13.50;98.90
12632;DHT22;6381;45.748;12.106;2023-05-18T02:06:58;13.50;98.70
12632;DHT22;6381;45.748;12.106;2023-05-18T02:09:29;13.50;98.70
12632;DHT22;6381;45.748;12.106;2023-05-18T02:12:00;13.70;99.00
12632;DHT22;6381;45.748;12.106;2023-05-18T02:14:31;13.70;98.70
12632;DHT22;6381;45.748;12.106;2023-05-18T02:17:01;13.70;98.60
12632;DHT22;6381;45.748;12.106;2023-05-18T02:19:31;13.60;98.80
12632;DHT22;6381;45.748;12.106;2023-05-18T02:22:05;13.60;99.20
12632;DHT22;6381;45.748;12.106;2023-05-18T02:24:36;13.50;99.00
12632;DHT22;6381;45.748;12.106;2023-05-18T02:27:06;13.50;99.40
12632;DHT22;6381;45.748;12.106;2023-05-18T02:29:37;13.50;99.60
12632;DHT22;6381;45.748;12.106;2023-05-18T02:32:07;13.50;99.80
12632;DHT22;6381;45.748;12.106;2023-05-18T02:34:37;13.50;99.60
12632;DHT22;6381;45.748;12.106;2023-05-18T02:37:08;13.50;99.50
12632;DHT22;6381;45.748;12.106;2023-05-18T02:39:40;13.40;99.30
12632;DHT22;6381;45.748;12.106;2023-05-18T02:42:10;13.40;99.30
12632;DHT22;6381;45.748;12.106;2023-05-18T02:44:41;13.40;99.30
12632;DHT22;6381;45.748;12.106;2023-05-18T02:47:14;13.30;99.20
12632;DHT22;6381;45.748;12.106;2023-05-18T02:49:44;13.60;99.20
12632;DHT22;6381;45.748;12.106;2023-05-18T02:52:14;13.60;98.50
12632;DHT22;6381;45.748;12.106;2023-05-18T02:54:44;13.70;98.70
12632;DHT22;6381;45.748;12.106;2023-05-18T02:57:20;13.60;98.60
12632;DHT22;6381;45.748;12.106;2023-05-18T03:00:01;13.50;98.70
12632;DHT22;6381;45.748;12.106;2023-05-18T03:02:38;13.50;98.60
12632;DHT22;6381;45.748;12.106;2023-05-18T03:05:08;13.30;98.80
12632;DHT22;6381;45.748;12.106;2023-05-18T03:07:38;13.50;99.20
12632;DHT22;6381;45.748;12.106;2023-05-18T03:10:09;13.40;98.50
12632;DHT22;6381;45.748;12.106;2023-05-18T03:12:39;13.40;98.50
12632;DHT22;6381;45.748;12.106;2023-05-18T03:15:11;13.40;99.10
12632;DHT22;6381;45.748;12.106;2023-05-18T03:17:43;13.40;98.50
12632;DHT22;6381;45.748;12.106;2023-05-18T03:20:14;13.40;98.20
12632;DHT22;6381;45.748;12.106;2023-05-18T03:22:44;13.30;98.70
12632;DHT22;6381;45.748;12.106;2023-05-18T03:25:13;13.30;98.70
12632;DHT22;6381;45.748;12.106;2023-05-18T03:27:43;13.50;99.60
12632;DHT22;6381;45.748;12.106;2023-05-18T03:30:15;13.40;99.20
12632;DHT22;6381;45.748;12.106;2023-05-18T03:32:46;13.10;98.90
12632;DHT22;6381;45.748;12.106;2023-05-18T03:35:16;13.00;98.90
12632;DHT22;6381;45.748;12.106;2023-05-18T03:37:46;13.00;98.80
12632;DHT22;6381;45.748;12.106;2023-05-18T03:40:17;13.00;98.60
12632;DHT22;6381;45.748;12.106;2023-05-18T03:42:48;12.80;98.40
12632;DHT22;6381;45.748;12.106;2023-05-18T03:45:20;12.80;98.70
12632;DHT22;6381;45.748;12.106;2023-05-18T03:47:50;12.70;98.60
12632;DHT22;6381;45.748;12.106;2023-05-18T03:50:20;12.70;98.80
12632;DHT22;6381;45.748;12.106;2023-05-18T03:52:51;12.70;98.50
12632;DHT22;6381;45.748;12.106;2023-05-18T03:55:21;12.60;98.70
12632;DHT22;6381;45.748;12.106;2023-05-18T03:57:52;12.70;99.10
12632;DHT22;6381;45.748;12.106;2023-05-18T04:00:24;12.60;99.00
12632;DHT22;6381;45.748;12.106;2023-05-18T04:02:54;12.50;99.30
12632;DHT22;6381;45.748;12.106;2023-05-18T04:05:25;12.50;99.50
12632;DHT22;6381;45.748;12.106;2023-05-18T04:07:55;12.80;99.60
12632;DHT22;6381;45.748;12.106;2023-05-18T04:10:25;12.90;99.20
12632;DHT22;6381;45.748;12.106;2023-05-18T04:12:55;12.50;98.80
12632;DHT22;6381;45.748;12.106;2023-05-18T04:15:26;12.60;99.20
12632;DHT22;6381;45.748;12.106;2023-05-18T04:17:56;12.80;99.30
12632;DHT22;6381;45.748;12.106;2023-05-18T04:20:27;12.80;99.20
12632;DHT22;6381;45.748;12.106;2023-05-18T04:22:56;13.00;98.60
12632;DHT22;6381;45.748;12.106;2023-05-18T04:25:27;12.90;98.50
12632;DHT22;6381;45.748;12.106;2023-05-18T04:27:57;12.90;97.90
12632;DHT22;6381;45.748;12.106;2023-05-18T04:30:28;12.70;97.90
12632;DHT22;6381;45.748;12.106;2023-05-18T04:32:59;12.90;98.00
12632;DHT22;6381;45.748;12.106;2023-05-18T04:35:31;13.10;98.00
12632;DHT22;6381;45.748;12.106;2023-05-18T04:38:01;13.10;97.20
12632;DHT22;6381;45.748;12.106;2023-05-18T04:40:32;12.90;97.40
12632;DHT22;6381;45.748;12.106;2023-05-18T04:43:05;13.00;97.40
12632;DHT22;6381;45.748;12.106;2023-05-18T04:45:36;13.10;97.20
12632;DHT22;6381;45.748;12.106;2023-05-18T04:48:07;13.40;97.20
12632;DHT22;6381;45.748;12.106;2023-05-18T04:50:37;13.60;96.90
12632;DHT22;6381;45.748;12.106;2023-05-18T04:53:07;13.50;97.40
12632;DHT22;6381;45.748;12.106;2023-05-18T04:55:39;13.40;97.40
12632;DHT22;6381;45.748;12.106;2023-05-18T04:58:11;13.40;97.70
12632;DHT22;6381;45.748;12.106;2023-05-18T05:00:43;13.60;97.40
12632;DHT22;6381;45.748;12.106;2023-05-18T05:03:13;14.00;97.40
12632;DHT22;6381;45.748;12.106;2023-05-18T05:05:43;14.10;97.20
12632;DHT22;6381;45.748;12.106;2023-05-18T05:08:13;14.00;96.60
12632;DHT22;6381;45.748;12.106;2023-05-18T05:10:44;14.20;96.50
12632;DHT22;6381;45.748;12.106;2023-05-18T05:13:14;14.20;96.60
12632;DHT22;6381;45.748;12.106;2023-05-18T05:15:45;14.30;96.50
12632;DHT22;6381;45.748;12.106;2023-05-18T05:18:15;14.40;96.40
12632;DHT22;6381;45.748;12.106;2023-05-18T05:20:45;14.40;96.20
12632;DHT22;6381;45.748;12.106;2023-05-18T05:23:15;14.50;96.00
12632;DHT22;6381;45.748;12.106;2023-05-18T05:25:46;14.60;95.60
12632;DHT22;6381;45.748;12.106;2023-05-18T05:28:16;14.80;94.90
12632;DHT22;6381;45.748;12.106;2023-05-18T05:30:48;14.70;94.60
12632;DHT22;6381;45.748;12.106;2023-05-18T05:33:18;14.80;93.40
12632;DHT22;6381;45.748;12.106;2023-05-18T05:35:48;14.90;92.20
12632;DHT22;6381;45.748;12.106;2023-05-18T05:38:18;14.90;91.40
12632;DHT22;6381;45.748;12.106;2023-05-18T05:40:48;15.00;90.90
12632;DHT22;6381;45.748;12.106;2023-05-18T05:43:18;14.90;91.10
12632;DHT22;6381;45.748;12.106;2023-05-18T05:45:50;15.10;91.00
12632;DHT22;6381;45.748;12.106;2023-05-18T05:48:20;15.20;88.50
12632;DHT22;6381;45.748;12.106;2023-05-18T05:50:50;15.30;87.90
12632;DHT22;6381;45.748;12.106;2023-05-18T05:53:19;15.40;87.40
12632;DHT22;6381;45.748;12.106;2023-05-18T05:55:50;15.30;84.60
12632;DHT22;6381;45.748;12.106;2023-05-18T05:58:20;15.40;82.90
12632;DHT22;6381;45.748;12.106;2023-05-18T06:00:55;15.40;78.50
12632;DHT22;6381;45.748;12.106;2023-05-18T06:03:25;15.50;79.20
12632;DHT22;6381;45.748;12.106;2023-05-18T06:05:59;15.50;76.10
12632;DHT22;6381;45.748;12.106;2023-05-18T06:08:29;15.60;75.10
12632;DHT22;6381;45.748;12.106;2023-05-18T06:10:59;15.60;74.80
12632;DHT22;6381;45.748;12.106;2023-05-18T06:13:29;15.60;72.40
12632;DHT22;6381;45.748;12.106;2023-05-18T06:16:00;15.70;72.90
12632;DHT22;6381;45.748;12.106;2023-05-18T06:18:30;15.80;71.80
12632;DHT22;6381;45.748;12.106;2023-05-18T06:21:04;15.80;73.20
12632;DHT22;6381;45.748;12.106;2023-05-18T06:23:34;15.80;70.10
12632;DHT22;6381;45.748;12.106;2023-05-18T06:26:33;15.90;70.20
12632;DHT22;6381;45.748;12.106;2023-05-18T06:29:15;15.90;69.90
12632;DHT22;6381;45.748;12.106;2023-05-18T06:32:02;16.00;70.40
12632;DHT22;6381;45.748;12.106;2023-05-18T06:34:40;16.20;71.80
12632;DHT22;6381;45.748;12.106;2023-05-18T06:37:12;16.20;72.50
12632;DHT22;6381;45.748;12.106;2023-05-18T06:39:44;16.20;72.50
12632;DHT22;6381;45.748;12.106;2023-05-18T06:42:14;16.30;73.80
12632;DHT22;6381;45.748;12.106;2023-05-18T06:44:51;16.50;72.70
12632;DHT22;6381;45.748;12.106;2023-05-18T06:47:38;16.50;70.50
12632;DHT22;6381;45.748;12.106;2023-05-18T06:50:09;16.50;72.90
12632;DHT22;6381;45.748;12.106;2023-05-18T06:52:39;16.60;73.30
12632;DHT22;6381;45.748;12.106;2023-05-18T06:55:10;16.50;73.00
12632;DHT22;6381;45.748;12.106;2023-05-18T06:57:40;16.60;71.60
12632;DHT22;6381;45.748;12.106;2023-05-18T07:00:10;16.80;70.30
12632;DHT22;6381;45.748;12.106;2023-05-18T07:02:43;17.00;70.30
12632;DHT22;6381;45.748;12.106;2023-05-18T07:05:14;16.90;68.70
12632;DHT22;6381;45.748;12.106;2023-05-18T07:07:44;17.00;70.90
12632;DHT22;6381;45.748;12.106;2023-05-18T07:10:15;17.00;68.30
12632;DHT22;6381;45.748;12.106;2023-05-18T07:12:45;17.00;68.30
12632;DHT22;6381;45.748;12.106;2023-05-18T07:15:14;17.00;69.10
12632;DHT22;6381;45.748;12.106;2023-05-18T07:17:48;17.10;70.80
12632;DHT22;6381;45.748;12.106;2023-05-18T07:20:17;17.10;70.50
12632;DHT22;6381;45.748;12.106;2023-05-18T07:22:49;17.30;70.70
12632;DHT22;6381;45.748;12.106;2023-05-18T07:25:19;17.20;70.10
12632;DHT22;6381;45.748;12.106;2023-05-18T07:27:49;17.30;66.80
12632;DHT22;6381;45.748;12.106;2023-05-18T07:30:19;17.20;64.20
12632;DHT22;6381;45.748;12.106;2023-05-18T07:32:51;17.30;66.20
12632;DHT22;6381;45.748;12.106;2023-05-18T07:35:21;17.10;64.00
12632;DHT22;6381;45.748;12.106;2023-05-18T07:37:52;17.20;66.50
12632;DHT22;6381;45.748;12.106;2023-05-18T07:40:22;17.30;62.90
12632;DHT22;6381;45.748;12.106;2023-05-18T07:42:51;17.10;61.60
12632;DHT22;6381;45.748;12.106;2023-05-18T07:45:21;17.10;61.60
12632;DHT22;6381;45.748;12.106;2023-05-18T07:47:52;17.10;60.90
12632;DHT22;6381;45.748;12.106;2023-05-18T07:50:22;17.10;60.90
12632;DHT22;6381;45.748;12.106;2023-05-18T07:52:53;17.20;62.20
12632;DHT22;6381;45.748;12.106;2023-05-18T07:55:23;17.40;64.00
12632;DHT22;6381;45.748;12.106;2023-05-18T07:57:52;17.40;61.10
12632;DHT22;6381;45.748;12.106;2023-05-18T08:00:22;17.00;60.40
12632;DHT22;6381;45.748;12.106;2023-05-18T08:02:54;16.90;60.70
12632;DHT22;6381;45.748;12.106;2023-05-18T08:05:23;17.10;63.30
12632;DHT22;6381;45.748;12.106;2023-05-18T08:07:53;17.40;62.80
12632;DHT22;6381;45.748;12.106;2023-05-18T08:10:23;17.80;65.90
12632;DHT22;6381;45.748;12.106;2023-05-18T08:12:53;18.00;64.50
12632;DHT22;6381;45.748;12.106;2023-05-18T08:15:23;18.10;65.00
12632;DHT22;6381;45.748;12.106;2023-05-18T08:17:54;18.30;64.70
12632;DHT22;6381;45.748;12.106;2023-05-18T08:20:24;18.50;64.30
12632;DHT22;6381;45.748;12.106;2023-05-18T08:22:57;18.40;61.90
12632;DHT22;6381;45.748;12.106;2023-05-18T08:25:26;18.10;61.20
12632;DHT22;6381;45.748;12.106;2023-05-18T08:27:56;18.20;62.30
12632;DHT22;6381;45.748;12.106;2023-05-18T08:30:26;18.20;61.20
12632;DHT22;6381;45.748;12.106;2023-05-18T08:32:58;18.50;65.20
12632;DHT22;6381;45.748;12.106;2023-05-18T08:35:28;18.50;65.20
12632;DHT22;6381;45.748;12.106;2023-05-18T08:37:59;18.70;64.60
12632;DHT22;6381;45.748;12.106;2023-05-18T08:40:38;18.70;63.80
12632;DHT22;6381;45.748;12.106;2023-05-18T08:43:15;18.80;60.10
12632;DHT22;6381;45.748;12.106;2023-05-18T08:45:53;18.90;62.10
12632;DHT22;6381;45.748;12.106;2023-05-18T08:48:26;18.70;60.00
12632;DHT22;6381;45.748;12.106;2023-05-18T08:50:57;18.80;61.80
12632;DHT22;6381;45.748;12.106;2023-05-18T08:53:31;19.10;63.60
12632;DHT22;6381;45.748;12.106;2023-05-18T08:56:01;18.70;61.00
12632;DHT22;6381;45.748;12.106;2023-05-18T08:58:34;18.90;61.20
12632;DHT22;6381;45.748;12.106;2023-05-18T09:01:04;19.40;65.90
12632;DHT22;6381;45.748;12.106;2023-05-18T09:03:37;19.40;64.90
12632;DHT22;6381;45.748;12.106;2023-05-18T09:06:07;19.20;59.60
12632;DHT22;6381;45.748;12.106;2023-05-18T09:08:38;19.40;62.00
12632;DHT22;6381;45.748;12.106;2023-05-18T09:11:08;19.50;61.70
12632;DHT22;6381;45.748;12.106;2023-05-18T09:13:38;19.90;63.40
12632;DHT22;6381;45.748;12.106;2023-05-18T09:16:08;20.00;59.90
12632;DHT22;6381;45.748;12.106;2023-05-18T09:18:39;20.00;57.50
12632;DHT22;6381;45.748;12.106;2023-05-18T09:21:10;19.80;58.50
12632;DHT22;6381;45.748;12.106;2023-05-18T09:23:40;19.90;59.40
12632;DHT22;6381;45.748;12.106;2023-05-18T09:26:10;19.90;60.00
12632;DHT22;6381;45.748;12.106;2023-05-18T09:28:42;19.70;59.40
12632;DHT22;6381;45.748;12.106;2023-05-18T09:31:16;19.90;60.90
12632;DHT22;6381;45.748;12.106;2023-05-18T09:33:48;19.70;57.70
12632;DHT22;6381;45.748;12.106;2023-05-18T09:36:23;19.50;61.60
12632;DHT22;6381;45.748;12.106;2023-05-18T09:38:56;19.30;56.30
12632;DHT22;6381;45.748;12.106;2023-05-18T09:41:26;19.60;59.90
12632;DHT22;6381;45.748;12.106;2023-05-18T09:43:57;19.80;59.70
12632;DHT22;6381;45.748;12.106;2023-05-18T09:46:34;20.30;63.30
12632;DHT22;6381;45.748;12.106;2023-05-18T09:49:07;20.40;59.50
12632;DHT22;6381;45.748;12.106;2023-05-18T09:51:37;20.40;60.30
12632;DHT22;6381;45.748;12.106;2023-05-18T09:54:07;20.20;58.70
12632;DHT22;6381;45.748;12.106;2023-05-18T09:56:37;20.30;57.70
12632;DHT22;6381;45.748;12.106;2023-05-18T09:59:09;20.30;56.50
12632;DHT22;6381;45.748;12.106;2023-05-18T10:01:54;20.40;54.70
12632;DHT22;6381;45.748;12.106;2023-05-18T10:04:34;20.80;58.20
12632;DHT22;6381;45.748;12.106;2023-05-18T10:07:09;21.10;55.50
12632;DHT22;6381;45.748;12.106;2023-05-18T10:09:40;21.20;56.60
12632;DHT22;6381;45.748;12.106;2023-05-18T10:12:11;21.30;56.50
12632;DHT22;6381;45.748;12.106;2023-05-18T10:14:42;21.40;56.70
12632;DHT22;6381;45.748;12.106;2023-05-18T10:17:13;21.40;55.90
12632;DHT22;6381;45.748;12.106;2023-05-18T10:19:50;21.30;53.00
12632;DHT22;6381;45.748;12.106;2023-05-18T10:22:21;21.10;51.80
12632;DHT22;6381;45.748;12.106;2023-05-18T10:24:52;21.00;53.20
12632;DHT22;6381;45.748;12.106;2023-05-18T10:27:27;21.10;54.60
12632;DHT22;6381;45.748;12.106;2023-05-18T10:29:57;21.30;55.70
12632;DHT22;6381;45.748;12.106;2023-05-18T10:32:31;21.50;57.80
12632;DHT22;6381;45.748;12.106;2023-05-18T10:35:07;21.50;55.10
12632;DHT22;6381;45.748;12.106;2023-05-18T10:37:40;21.60;52.60
12632;DHT22;6381;45.748;12.106;2023-05-18T10:40:14;21.60;53.50
12632;DHT22;6381;45.748;12.106;2023-05-18T10:42:46;21.30;53.40
12632;DHT22;6381;45.748;12.106;2023-05-18T10:45:17;21.40;54.00
12632;DHT22;6381;45.748;12.106;2023-05-18T10:47:49;21.50;49.70
12632;DHT22;6381;45.748;12.106;2023-05-18T10:50:24;21.00;51.40
12632;DHT22;6381;45.748;12.106;2023-05-18T10:52:55;21.10;49.00
12632;DHT22;6381;45.748;12.106;2023-05-18T10:55:26;20.90;51.10
12632;DHT22;6381;45.748;12.106;2023-05-18T10:58:02;20.80;51.70
12632;DHT22;6381;45.748;12.106;2023-05-18T11:00:34;20.90;50.70
12632;DHT22;6381;45.748;12.106;2023-05-18T11:03:08;20.80;51.90
12632;DHT22;6381;45.748;12.106;2023-05-18T11:05:43;20.60;51.60
12632;DHT22;6381;45.748;12.106;2023-05-18T11:08:26;21.00;52.60
12632;DHT22;6381;45.748;12.106;2023-05-18T11:11:00;21.20;54.30
12632;DHT22;6381;45.748;12.106;2023-05-18T11:13:32;21.20;53.60
12632;DHT22;6381;45.748;12.106;2023-05-18T11:16:03;21.20;53.80
12632;DHT22;6381;45.748;12.106;2023-05-18T11:18:42;21.30;54.00
12632;DHT22;6381;45.748;12.106;2023-05-18T11:21:51;21.50;54.00
12632;DHT22;6381;45.748;12.106;2023-05-18T11:24:23;21.50;53.30
12632;DHT22;6381;45.748;12.106;2023-05-18T11:26:54;21.60;52.50
12632;DHT22;6381;45.748;12.106;2023-05-18T11:29:30;21.70;51.80
12632;DHT22;6381;45.748;12.106;2023-05-18T11:32:00;21.70;54.10
12632;DHT22;6381;45.748;12.106;2023-05-18T11:34:42;21.70;51.90
12632;DHT22;6381;45.748;12.106;2023-05-18T11:37:15;21.80;52.00
12632;DHT22;6381;45.748;12.106;2023-05-18T11:39:55;21.50;51.80
12632;DHT22;6381;45.748;12.106;2023-05-18T11:42:34;21.60;50.50
12632;DHT22;6381;45.748;12.106;2023-05-18T11:45:08;21.80;51.10
12632;DHT22;6381;45.748;12.106;2023-05-18T11:47:38;22.00;51.30
12632;DHT22;6381;45.748;12.106;2023-05-18T11:50:10;22.30;48.80
12632;DHT22;6381;45.748;12.106;2023-05-18T11:52:46;22.60;48.60
12632;DHT22;6381;45.748;12.106;2023-05-18T11:55:19;22.80;47.00
12632;DHT22;6381;45.748;12.106;2023-05-18T11:57:50;22.60;49.50
12632;DHT22;6381;45.748;12.106;2023-05-18T12:00:23;22.60;48.20
12632;DHT22;6381;45.748;12.106;2023-05-18T12:02:55;22.00;47.90
12632;DHT22;6381;45.748;12.106;2023-05-18T12:05:29;21.80;49.30
12632;DHT22;6381;45.748;12.106;2023-05-18T12:08:03;22.20;48.10
12632;DHT22;6381;45.748;12.106;2023-05-18T12:10:33;22.60;49.50
12632;DHT22;6381;45.748;12.106;2023-05-18T12:13:05;22.80;50.00
12632;DHT22;6381;45.748;12.106;2023-05-18T12:15:36;22.70;44.70
12632;DHT22;6381;45.748;12.106;2023-05-18T12:18:31;22.90;47.20
12632;DHT22;6381;45.748;12.106;2023-05-18T12:21:03;23.30;48.30
12632;DHT22;6381;45.748;12.106;2023-05-18T12:23:38;23.60;45.40
12632;DHT22;6381;45.748;12.106;2023-05-18T12:26:08;23.40;44.30
12632;DHT22;6381;45.748;12.106;2023-05-18T12:28:38;23.10;47.00
12632;DHT22;6381;45.748;12.106;2023-05-18T12:31:08;22.80;47.00
12632;DHT22;6381;45.748;12.106;2023-05-18T12:33:38;22.80;46.30
12632;DHT22;6381;45.748;12.106;2023-05-18T12:36:09;22.80;47.60
12632;DHT22;6381;45.748;12.106;2023-05-18T12:38:41;22.60;49.40
12632;DHT22;6381;45.748;12.106;2023-05-18T12:41:21;22.60;45.90
12632;DHT22;6381;45.748;12.106;2023-05-18T12:43:50;22.70;46.10
12632;DHT22;6381;45.748;12.106;2023-05-18T12:46:22;22.20;45.90
12632;DHT22;6381;45.748;12.106;2023-05-18T12:48:57;22.10;47.50
12632;DHT22;6381;45.748;12.106;2023-05-18T12:51:32;22.40;46.30
12632;DHT22;6381;45.748;12.106;2023-05-18T12:54:04;22.00;48.40
12632;DHT22;6381;45.748;12.106;2023-05-18T12:56:53;22.50;49.50
12632;DHT22;6381;45.748;12.106;2023-05-18T12:59:28;22.20;46.10
12632;DHT22;6381;45.748;12.106;2023-05-18T13:01:58;22.50;47.30
12632;DHT22;6381;45.748;12.106;2023-05-18T13:04:34;22.70;48.70
12632;DHT22;6381;45.748;12.106;2023-05-18T13:07:04;22.50;47.40
12632;DHT22;6381;45.748;12.106;2023-05-18T13:09:44;22.70;47.90
12632;DHT22;6381;45.748;12.106;2023-05-18T13:12:14;22.80;49.70
12632;DHT22;6381;45.748;12.106;2023-05-18T13:14:44;22.80;46.30
12632;DHT22;6381;45.748;12.106;2023-05-18T13:17:21;23.20;48.50
12632;DHT22;6381;45.748;12.106;2023-05-18T13:19:56;23.40;48.30
12632;DHT22;6381;45.748;12.106;2023-05-18T13:22:26;23.50;50.60
12632;DHT22;6381;45.748;12.106;2023-05-18T13:24:57;23.40;47.50
12632;DHT22;6381;45.748;12.106;2023-05-18T13:27:28;23.90;49.50
12632;DHT22;6381;45.748;12.106;2023-05-18T13:29:58;23.70;48.80
12632;DHT22;6381;45.748;12.106;2023-05-18T13:32:28;23.60;45.30
12632;DHT22;6381;45.748;12.106;2023-05-18T13:34:58;23.40;44.00
12632;DHT22;6381;45.748;12.106;2023-05-18T13:37:27;22.90;44.60
12632;DHT22;6381;45.748;12.106;2023-05-18T13:39:59;23.50;45.20
12632;DHT22;6381;45.748;12.106;2023-05-18T13:42:29;23.80;49.10
12632;DHT22;6381;45.748;12.106;2023-05-18T13:44:59;24.00;47.50
12632;DHT22;6381;45.748;12.106;2023-05-18T13:47:28;24.30;47.90
12632;DHT22;6381;45.748;12.106;2023-05-18T13:49:58;24.60;47.10
12632;DHT22;6381;45.748;12.106;2023-05-18T13:52:32;24.70;47.00
12632;DHT22;6381;45.748;12.106;2023-05-18T13:55:05;24.50;45.10
12632;DHT22;6381;45.748;12.106;2023-05-18T13:57:37;24.30;44.00
12632;DHT22;6381;45.748;12.106;2023-05-18T14:00:09;24.30;46.90
12632;DHT22;6381;45.748;12.106;2023-05-18T14:02:40;24.50;47.00
12632;DHT22;6381;45.748;12.106;2023-05-18T14:05:10;25.40;45.30
12632;DHT22;6381;45.748;12.106;2023-05-18T14:07:41;25.90;42.50
12632;DHT22;6381;45.748;12.106;2023-05-18T14:10:13;26.50;39.90
12632;DHT22;6381;45.748;12.106;2023-05-18T14:12:43;26.00;39.60
12632;DHT22;6381;45.748;12.106;2023-05-18T14:15:12;25.20;40.00
12632;DHT22;6381;45.748;12.106;2023-05-18T14:17:42;23.70;41.70
12632;DHT22;6381;45.748;12.106;2023-05-18T14:20:12;23.20;43.00
12632;DHT22;6381;45.748;12.106;2023-05-18T14:22:42;22.80;43.60
12632;DHT22;6381;45.748;12.106;2023-05-18T14:25:13;23.60;44.10
12632;DHT22;6381;45.748;12.106;2023-05-18T14:27:43;23.60;44.60
12632;DHT22;6381;45.748;12.106;2023-05-18T14:30:13;23.50;44.10
12632;DHT22;6381;45.748;12.106;2023-05-18T14:32:42;23.50;45.60
12632;DHT22;6381;45.748;12.106;2023-05-18T14:35:12;23.70;47.40
12632;DHT22;6381;45.748;12.106;2023-05-18T14:37:42;23.80;47.50
12632;DHT22;6381;45.748;12.106;2023-05-18T14:40:13;23.70;48.30
12632;DHT22;6381;45.748;12.106;2023-05-18T14:42:43;23.90;48.40
12632;DHT22;6381;45.748;12.106;2023-05-18T14:45:13;24.50;47.90
12632;DHT22;6381;45.748;12.106;2023-05-18T14:47:43;24.30;47.20
12632;DHT22;6381;45.748;12.106;2023-05-18T14:50:13;24.40;44.40
12632;DHT22;6381;45.748;12.106;2023-05-18T14:52:43;24.30;44.60
12632;DHT22;6381;45.748;12.106;2023-05-18T14:55:14;23.80;46.40
12632;DHT22;6381;45.748;12.106;2023-05-18T14:57:44;23.80;47.70
12632;DHT22;6381;45.748;12.106;2023-05-18T15:00:14;24.10;47.40
12632;DHT22;6381;45.748;12.106;2023-05-18T15:02:44;24.50;45.80
12632;DHT22;6381;45.748;12.106;2023-05-18T15:05:14;24.00;46.20
12632;DHT22;6381;45.748;12.106;2023-05-18T15:07:44;23.50;47.00
12632;DHT22;6381;45.748;12.106;2023-05-18T15:10:15;23.50;47.80
12632;DHT22;6381;45.748;12.106;2023-05-18T15:12:44;23.50;47.60
12632;DHT22;6381;45.748;12.106;2023-05-18T15:15:14;23.70;46.10
12632;DHT22;6381;45.748;12.106;2023-05-18T15:17:44;23.70;47.50
12632;DHT22;6381;45.748;12.106;2023-05-18T15:20:14;23.10;48.30
12632;DHT22;6381;45.748;12.106;2023-05-18T15:22:46;23.20;48.60
12632;DHT22;6381;45.748;12.106;2023-05-18T15:25:29;22.80;48.00
12632;DHT22;6381;45.748;12.106;2023-05-18T15:28:01;22.60;49.10
12632;DHT22;6381;45.748;12.106;2023-05-18T15:30:32;22.60;50.00
12632;DHT22;6381;45.748;12.106;2023-05-18T15:33:02;22.40;50.40
12632;DHT22;6381;45.748;12.106;2023-05-18T15:35:33;22.50;50.90
12632;DHT22;6381;45.748;12.106;2023-05-18T15:38:05;22.50;50.40
12632;DHT22;6381;45.748;12.106;2023-05-18T15:40:42;22.30;51.00
12632;DHT22;6381;45.748;12.106;2023-05-18T15:43:14;22.30;50.60
12632;DHT22;6381;45.748;12.106;2023-05-18T15:45:44;22.10;50.60
12632;DHT22;6381;45.748;12.106;2023-05-18T15:48:16;22.20;51.20
12632;DHT22;6381;45.748;12.106;2023-05-18T15:50:46;22.00;51.50
12632;DHT22;6381;45.748;12.106;2023-05-18T15:53:16;22.00;52.90
12632;DHT22;6381;45.748;12.106;2023-05-18T15:55:47;22.00;52.90
12632;DHT22;6381;45.748;12.106;2023-05-18T15:58:19;22.00;52.60
12632;DHT22;6381;45.748;12.106;2023-05-18T16:00:49;21.80;51.90